createdAt,value
2022-09-26T00:01:43.649Z,3.40
2022-09-26T00:04:22.919Z,3.42
2022-09-26T00:06:53.495Z,2.45
2022-09-26T00:09:23.226Z,4.88
2022-09-26T00:11:52.233Z,4.70
2022-09-26T00:14:25.573Z,2.50
2022-09-26T00:16:54.365Z,3.85
2022-09-26T00:19:24.425Z,2.40
2022-09-26T00:21:52.900Z,2.80
2022-09-26T00:24:21.129Z,4.50
2022-09-26T00:26:49.027Z,5.22
2022-09-26T00:29:17.084Z,4.28
2022-09-26T00:31:48.946Z,5.45
2022-09-26T00:34:19.694Z,2.25
2022-09-26T00:36:49.321Z,7.65
2022-09-26T00:39:18.202Z,3.92
2022-09-26T00:41:46.591Z,2.63
2022-09-26T00:44:50.036Z,6.05
2022-09-26T00:47:44.845Z,3.83
2022-09-26T00:50:21.168Z,3.72
2022-09-26T00:52:57.875Z,4.18
2022-09-26T00:55:32.263Z,5.10
2022-09-26T00:58:05.551Z,4.03
2022-09-26T01:00:34.299Z,4.47
2022-09-26T01:03:03.184Z,4.45
2022-09-26T01:05:33.891Z,5.70
2022-09-26T01:08:04.322Z,5.13
2022-09-26T01:10:35.246Z,5.75
2022-09-26T01:13:04.065Z,3.25
2022-09-26T01:15:32.066Z,7.07
2022-09-26T01:18:00.090Z,5.38
2022-09-26T01:20:39.682Z,4.00
2022-09-26T01:23:44.570Z,3.95
2022-09-26T01:27:04.651Z,4.38
2022-09-26T01:30:10.518Z,3.28
2022-09-26T01:33:07.546Z,5.35
2022-09-26T01:36:06.703Z,3.97
2022-09-26T01:38:50.436Z,4.57
2022-09-26T01:41:44.079Z,5.07
2022-09-26T01:44:28.541Z,6.50
2022-09-26T01:47:06.850Z,3.95
2022-09-26T01:49:48.157Z,6.28
2022-09-26T01:52:21.546Z,4.70
2022-09-26T01:54:56.421Z,6.28
2022-09-26T01:57:30.516Z,7.43
2022-09-26T02:00:05.903Z,4.35
2022-09-26T02:02:43.150Z,4.38
2022-09-26T02:05:21.548Z,5.15
2022-09-26T02:07:59.458Z,3.20
2022-09-26T02:10:35.671Z,3.92
2022-09-26T02:13:12.353Z,4.15
2022-09-26T02:15:41.369Z,4.97
2022-09-26T02:18:17.575Z,4.18
2022-09-26T02:20:57.020Z,2.83
2022-09-26T02:23:25.070Z,2.67
2022-09-26T02:25:54.017Z,3.35
2022-09-26T02:28:23.000Z,4.50
2022-09-26T02:30:54.866Z,4.95
2022-09-26T02:33:25.014Z,2.60
2022-09-26T02:35:56.062Z,3.63
2022-09-26T02:38:26.498Z,4.32
2022-09-26T02:41:06.830Z,3.17
2022-09-26T02:44:33.413Z,4.00
2022-09-26T02:47:43.479Z,3.38
2022-09-26T02:50:29.036Z,3.47
2022-09-26T02:53:17.220Z,2.35
2022-09-26T02:55:57.730Z,3.47
2022-09-26T02:58:37.630Z,3.38
2022-09-26T03:01:15.774Z,3.08
2022-09-26T03:03:51.609Z,4.15
2022-09-26T03:06:30.949Z,5.25
2022-09-26T03:09:02.362Z,6.88
2022-09-26T03:11:32.472Z,4.78
2022-09-26T03:14:01.747Z,3.78
2022-09-26T03:16:37.355Z,4.68
2022-09-26T03:19:11.699Z,4.32
2022-09-26T03:21:41.297Z,4.97
2022-09-26T03:24:09.380Z,4.88
2022-09-26T03:26:38.039Z,5.88
2022-09-26T03:29:06.502Z,5.00
2022-09-26T03:31:34.908Z,3.50
2022-09-26T03:34:03.106Z,4.57
2022-09-26T03:36:32.072Z,4.50
2022-09-26T03:39:01.438Z,4.35
2022-09-26T03:41:29.567Z,6.32
2022-09-26T03:43:58.203Z,3.67
2022-09-26T03:46:26.243Z,3.83
2022-09-26T03:48:54.195Z,4.18
2022-09-26T03:51:22.167Z,3.75
2022-09-26T03:53:52.826Z,4.80
2022-09-26T03:56:23.308Z,4.47
2022-09-26T03:58:51.268Z,4.97
2022-09-26T04:01:22.044Z,5.78
2022-09-26T04:03:51.636Z,3.80
2022-09-26T04:06:22.772Z,5.78
2022-09-26T04:08:53.360Z,5.10
2022-09-26T04:11:24.857Z,5.45
2022-09-26T04:13:54.273Z,5.22
2022-09-26T04:16:24.604Z,4.28
2022-09-26T04:18:57.573Z,5.35
2022-09-26T04:21:28.025Z,7.25
2022-09-26T04:23:56.493Z,7.97
2022-09-26T04:26:25.877Z,7.38
2022-09-26T04:28:57.526Z,5.70
2022-09-26T04:31:27.590Z,5.82
2022-09-26T04:33:56.079Z,5.20
2022-09-26T04:36:24.381Z,5.15
2022-09-26T04:38:52.310Z,7.35
2022-09-26T04:41:22.983Z,6.22
2022-09-26T04:43:54.738Z,5.97
2022-09-26T04:46:30.166Z,6.18
2022-09-26T04:49:02.165Z,6.40
2022-09-26T04:51:32.805Z,5.97
2022-09-26T04:54:00.980Z,5.07
2022-09-26T04:56:31.009Z,8.50
2022-09-26T04:59:04.784Z,7.03
2022-09-26T05:01:33.020Z,7.88
2022-09-26T05:04:01.073Z,7.05
2022-09-26T05:06:29.289Z,5.63
2022-09-26T05:08:57.622Z,5.47
2022-09-26T05:11:25.639Z,6.35
2022-09-26T05:13:54.201Z,7.18
2022-09-26T05:16:24.014Z,4.97
2022-09-26T05:18:55.133Z,4.80
2022-09-26T05:21:23.439Z,5.45
2022-09-26T05:24:08.926Z,5.90
2022-09-26T05:26:43.380Z,6.75
2022-09-26T05:29:14.088Z,6.03
2022-09-26T05:31:43.647Z,6.75
2022-09-26T05:34:19.166Z,5.72
2022-09-26T05:36:48.562Z,7.20
2022-09-26T05:39:36.775Z,6.15
2022-09-26T05:42:07.813Z,6.25
2022-09-26T05:44:36.587Z,4.43
2022-09-26T05:47:06.168Z,4.53
2022-09-26T05:49:34.753Z,5.75
2022-09-26T05:52:03.826Z,7.88
2022-09-26T05:54:32.058Z,8.55
2022-09-26T05:57:03.255Z,7.80
2022-09-26T05:59:31.354Z,4.85
2022-09-26T06:01:59.536Z,6.45
2022-09-26T06:04:29.345Z,5.50
2022-09-26T06:06:57.302Z,7.47
2022-09-26T06:09:27.963Z,5.25
2022-09-26T06:11:55.923Z,7.40
2022-09-26T06:14:26.682Z,5.20
2022-09-26T06:16:54.794Z,6.50
2022-09-26T06:19:23.309Z,6.30
2022-09-26T06:21:54.972Z,4.72
2022-09-26T06:24:22.979Z,5.90
2022-09-26T06:26:51.001Z,7.40
2022-09-26T06:29:19.698Z,5.57
2022-09-26T06:31:49.320Z,4.47
2022-09-26T06:34:17.387Z,5.70
2022-09-26T06:36:45.446Z,5.78
2022-09-26T06:39:15.139Z,10.13
2022-09-26T06:41:43.514Z,6.63
2022-09-26T06:44:11.578Z,4.93
2022-09-26T06:46:39.844Z,5.30
2022-09-26T06:49:10.160Z,5.70
2022-09-26T06:51:41.853Z,3.60
2022-09-26T06:54:10.161Z,6.40
2022-09-26T06:56:39.662Z,6.15
2022-09-26T06:59:08.445Z,4.45
2022-09-26T07:01:39.964Z,4.30
2022-09-26T07:04:08.208Z,6.28
2022-09-26T07:06:39.542Z,4.00
2022-09-26T07:09:12.971Z,4.22
2022-09-26T07:12:12.925Z,5.05
2022-09-26T07:14:34.580Z,4.78
2022-09-26T07:17:02.643Z,7.07
2022-09-26T07:19:30.788Z,5.57
2022-09-26T07:21:58.797Z,4.75
2022-09-26T07:24:27.296Z,7.05
2022-09-26T07:26:56.636Z,4.95
2022-09-26T07:29:26.688Z,4.55
2022-09-26T07:31:54.819Z,5.07
2022-09-26T07:34:25.865Z,3.00
2022-09-26T07:36:54.173Z,3.30
2022-09-26T07:39:22.334Z,10.07
2022-09-26T07:41:50.331Z,2.60
2022-09-26T07:45:02.296Z,3.33
2022-09-26T07:47:25.426Z,4.72
2022-09-26T07:50:10.854Z,3.70
2022-09-26T07:52:47.496Z,4.20
2022-09-26T07:55:21.815Z,3.88
2022-09-26T07:57:52.702Z,3.25
2022-09-26T08:00:22.927Z,3.25
2022-09-26T08:02:54.426Z,4.63
2022-09-26T08:05:24.506Z,1.98
2022-09-26T08:07:52.622Z,3.30
2022-09-26T08:10:24.415Z,6.15
2022-09-26T08:12:54.892Z,5.47
2022-09-26T08:15:25.707Z,4.88
2022-09-26T08:18:01.000Z,4.07
2022-09-26T08:20:32.161Z,4.15
2022-09-26T08:23:02.424Z,3.58
2022-09-26T08:25:30.374Z,2.67
2022-09-26T08:27:59.541Z,3.72
2022-09-26T08:30:31.231Z,3.50
2022-09-26T08:33:04.641Z,5.93
2022-09-26T08:35:41.136Z,4.72
2022-09-26T08:38:10.296Z,4.07
2022-09-26T08:40:54.518Z,3.67
2022-09-26T08:43:48.125Z,3.88
2022-09-26T08:46:55.416Z,3.75
2022-09-26T08:50:07.777Z,2.97
2022-09-26T08:52:43.603Z,3.65
2022-09-26T08:55:18.665Z,3.65
2022-09-26T08:57:53.999Z,2.08
2022-09-26T09:00:25.224Z,3.60
2022-09-26T09:03:08.896Z,2.85
2022-09-26T09:05:41.060Z,5.22
2022-09-26T09:08:21.820Z,3.22
2022-09-26T09:11:04.235Z,3.72
2022-09-26T09:14:05.951Z,2.03
2022-09-26T09:16:54.425Z,2.97
2022-09-26T09:19:37.624Z,5.43
2022-09-26T09:22:33.565Z,4.75
2022-09-26T09:25:10.768Z,2.10
2022-09-26T09:28:07.970Z,1.83
2022-09-26T09:30:44.521Z,2.28
2022-09-26T09:33:18.173Z,4.57
2022-09-26T09:35:52.645Z,4.47
2022-09-26T09:38:24.395Z,3.10
2022-09-26T09:41:03.834Z,2.60
2022-09-26T09:43:40.130Z,4.65
2022-09-26T09:46:19.295Z,3.53
2022-09-26T09:48:49.192Z,2.28
2022-09-26T09:51:43.975Z,2.47
2022-09-26T09:54:32.285Z,1.83
2022-09-26T09:57:33.163Z,3.58
2022-09-26T10:00:17.739Z,3.03
2022-09-26T10:03:01.074Z,4.95
2022-09-26T10:05:42.622Z,1.95
2022-09-26T10:08:19.300Z,2.15
2022-09-26T10:10:59.914Z,3.15
2022-09-26T10:13:32.546Z,1.92
2022-09-26T10:16:06.364Z,1.83
2022-09-26T10:18:52.601Z,2.20
2022-09-26T10:21:21.209Z,2.65
2022-09-26T10:23:51.842Z,3.83
2022-09-26T10:26:34.814Z,2.28
2022-09-26T10:29:08.227Z,3.60
2022-09-26T10:31:42.844Z,2.55
2022-09-26T10:34:27.850Z,2.10
2022-09-26T10:36:56.846Z,2.92
2022-09-26T10:39:48.450Z,1.63
2022-09-26T10:42:20.101Z,2.72
2022-09-26T10:44:50.345Z,3.80
2022-09-26T10:47:24.992Z,2.58
2022-09-26T10:49:59.048Z,3.17
2022-09-26T10:52:33.790Z,2.17
2022-09-26T10:55:12.405Z,1.90
2022-09-26T10:57:47.304Z,2.10
2022-09-26T11:00:21.930Z,3.00
2022-09-26T11:02:53.238Z,1.35
2022-09-26T11:05:41.292Z,1.48
2022-09-26T11:08:11.885Z,2.90
2022-09-26T11:10:42.126Z,2.15
2022-09-26T11:13:19.875Z,1.98
2022-09-26T11:16:01.418Z,2.28
2022-09-26T11:18:43.592Z,1.73
2022-09-26T11:21:29.239Z,1.63
2022-09-26T11:24:05.893Z,1.73
2022-09-26T11:26:45.060Z,1.67
2022-09-26T11:29:21.059Z,3.05
2022-09-26T11:31:49.308Z,1.40
2022-09-26T11:34:26.226Z,1.17
2022-09-26T11:37:19.087Z,1.73
2022-09-26T11:40:09.569Z,1.55
2022-09-26T11:42:54.711Z,1.67
2022-09-26T11:45:39.232Z,1.58
2022-09-26T11:48:51.857Z,1.35
2022-09-26T11:51:41.962Z,3.35
2022-09-26T11:54:37.506Z,1.33
2022-09-26T11:57:38.162Z,1.40
2022-09-26T12:00:24.425Z,1.98
2022-09-26T12:03:38.119Z,3.92
2022-09-26T12:06:24.569Z,1.63
2022-09-26T12:09:13.367Z,1.40
2022-09-26T12:11:53.837Z,1.95
2022-09-26T12:14:41.896Z,4.28
2022-09-26T12:17:23.010Z,5.13
2022-09-26T12:20:00.959Z,1.20
2022-09-26T12:22:39.347Z,1.25
2022-09-26T12:25:42.481Z,1.83
2022-09-26T12:28:31.732Z,2.28
2022-09-26T12:31:18.714Z,1.40
2022-09-26T12:34:24.637Z,1.30
2022-09-26T12:37:11.341Z,1.10
2022-09-26T12:40:10.266Z,1.38
2022-09-26T12:43:05.702Z,2.05
2022-09-26T12:45:57.157Z,1.75
2022-09-26T12:48:49.012Z,1.48
2022-09-26T12:51:33.346Z,5.30
2022-09-26T12:54:40.196Z,1.85
2022-09-26T12:57:24.304Z,1.30
2022-09-26T13:00:16.550Z,1.92
2022-09-26T13:03:39.366Z,2.03
2022-09-26T13:07:14.784Z,1.40
2022-09-26T13:10:13.594Z,1.27
2022-09-26T13:13:10.115Z,3.00
2022-09-26T13:16:00.909Z,1.70
2022-09-26T13:18:41.731Z,1.30
2022-09-26T13:21:14.954Z,1.40
2022-09-26T13:23:59.579Z,4.32
2022-09-26T13:26:35.435Z,1.83
2022-09-26T13:29:18.308Z,3.20
2022-09-26T13:31:55.129Z,3.22
2022-09-26T13:34:36.182Z,4.88
2022-09-26T13:37:09.836Z,2.22
2022-09-26T13:39:50.832Z,1.42
2022-09-26T13:42:32.163Z,1.95
2022-09-26T13:45:17.134Z,3.15
2022-09-26T13:47:55.075Z,1.60
2022-09-26T13:50:31.060Z,2.42
2022-09-26T13:53:15.364Z,2.80
2022-09-26T13:55:45.129Z,1.58
2022-09-26T13:58:25.309Z,5.82
2022-09-26T14:00:57.590Z,3.28
2022-09-26T14:03:43.154Z,3.00
2022-09-26T14:06:32.524Z,2.08
2022-09-26T14:09:24.614Z,2.95
2022-09-26T14:12:33.559Z,2.65
2022-09-26T14:15:24.137Z,2.58
2022-09-26T14:18:17.027Z,2.75
2022-09-26T14:21:04.919Z,1.25
2022-09-26T14:23:40.739Z,1.45
2022-09-26T14:26:14.670Z,1.38
2022-09-26T14:28:53.344Z,1.38
2022-09-26T14:31:57.018Z,1.48
2022-09-26T14:34:30.417Z,1.27
2022-09-26T14:37:22.360Z,1.80
2022-09-26T14:40:02.259Z,1.95
2022-09-26T14:42:38.776Z,2.03
2022-09-26T14:45:21.360Z,1.90
2022-09-26T14:48:04.497Z,1.88
2022-09-26T14:50:44.264Z,2.38
2022-09-26T14:53:22.424Z,2.60
2022-09-26T14:56:01.178Z,1.17
2022-09-26T14:58:50.766Z,3.05
2022-09-26T15:01:26.725Z,3.05
2022-09-26T15:04:02.970Z,2.55
2022-09-26T15:06:37.046Z,1.38
2022-09-26T15:09:11.298Z,1.40
2022-09-26T15:11:46.561Z,3.67
2022-09-26T15:14:33.648Z,3.53
2022-09-26T15:17:04.666Z,1.98
2022-09-26T15:19:36.896Z,1.38
2022-09-26T15:22:13.692Z,1.20
2022-09-26T15:24:42.031Z,1.17
2022-09-26T15:27:36.070Z,1.88
2022-09-26T15:30:14.307Z,1.63
2022-09-26T15:32:44.015Z,1.58
2022-09-26T15:35:16.360Z,4.47
2022-09-26T15:37:45.832Z,2.63
2022-09-26T15:40:19.181Z,3.42
2022-09-26T15:43:00.649Z,3.15
2022-09-26T15:45:33.331Z,2.28
2022-09-26T15:48:06.475Z,1.77
2022-09-26T15:50:43.069Z,1.63
2022-09-26T15:53:24.481Z,1.23
2022-09-26T15:55:58.863Z,1.95
2022-09-26T15:58:35.452Z,1.88
2022-09-26T16:01:04.067Z,2.10
2022-09-26T16:03:45.738Z,3.97
2022-09-26T16:06:28.805Z,2.25
2022-09-26T16:09:07.466Z,1.80
2022-09-26T16:11:47.479Z,2.85
2022-09-26T16:14:31.429Z,1.30
2022-09-26T16:17:12.268Z,2.95
2022-09-26T16:19:48.280Z,5.32
2022-09-26T16:22:37.107Z,1.20
2022-09-26T16:25:32.154Z,2.30
2022-09-26T16:28:36.571Z,2.05
2022-09-26T16:31:23.087Z,3.20
2022-09-26T16:33:54.155Z,2.05
2022-09-26T16:36:29.379Z,1.23
2022-09-26T16:39:01.884Z,3.05
2022-09-26T16:42:00.069Z,1.40
2022-09-26T16:44:34.402Z,2.67
2022-09-26T16:47:07.209Z,1.35
2022-09-26T16:49:48.144Z,2.65
2022-09-26T16:52:30.645Z,1.70
2022-09-26T16:55:01.232Z,1.13
2022-09-26T16:57:33.170Z,3.88
2022-09-26T17:00:26.150Z,1.50
2022-09-26T17:02:54.343Z,1.55
2022-09-26T17:05:23.075Z,2.72
2022-09-26T17:07:57.227Z,1.75
2022-09-26T17:10:27.042Z,1.45
2022-09-26T17:12:56.249Z,2.25
2022-09-26T17:15:29.989Z,2.05
2022-09-26T17:18:01.275Z,2.17
2022-09-26T17:20:29.906Z,1.23
2022-09-26T17:23:11.983Z,1.30
2022-09-26T17:25:52.996Z,3.47
2022-09-26T17:28:30.979Z,2.10
2022-09-26T17:31:06.106Z,2.00
2022-09-26T17:33:40.283Z,1.48
2022-09-26T17:36:10.876Z,2.08
2022-09-26T17:38:41.128Z,2.53
2022-09-26T17:41:12.402Z,2.17
2022-09-26T17:43:42.094Z,2.35
2022-09-26T17:46:15.671Z,1.60
2022-09-26T17:48:44.759Z,2.05
2022-09-26T17:51:14.334Z,1.20
2022-09-26T17:53:50.560Z,1.92
2022-09-26T17:56:19.457Z,1.77
2022-09-26T17:58:49.437Z,1.70
2022-09-26T18:01:27.193Z,2.42
2022-09-26T18:04:00.865Z,2.22
2022-09-26T18:06:32.691Z,1.75
2022-09-26T18:09:09.869Z,1.63
2022-09-26T18:11:38.992Z,1.75
2022-09-26T18:14:09.406Z,1.80
2022-09-26T18:16:37.436Z,2.53
2022-09-26T18:19:07.891Z,2.70
2022-09-26T18:21:38.606Z,3.03
2022-09-26T18:24:19.427Z,1.95
2022-09-26T18:26:51.126Z,1.73
2022-09-26T18:29:26.953Z,2.20
2022-09-26T18:31:55.595Z,2.45
2022-09-26T18:34:25.829Z,3.25
2022-09-26T18:36:56.950Z,3.33
2022-09-26T18:39:26.884Z,1.83
2022-09-26T18:42:02.166Z,3.45
2022-09-26T18:44:34.908Z,2.28
2022-09-26T18:47:13.932Z,1.60
2022-09-26T18:49:43.231Z,1.75
2022-09-26T18:52:16.058Z,1.77
2022-09-26T18:55:06.929Z,1.95
2022-09-26T18:57:52.474Z,1.65
2022-09-26T19:00:20.468Z,2.42
2022-09-26T19:02:50.306Z,2.30
2022-09-26T19:05:18.815Z,2.30
2022-09-26T19:07:47.633Z,1.55
2022-09-26T19:10:22.586Z,2.65
2022-09-26T19:12:50.588Z,2.10
2022-09-26T19:15:19.102Z,2.00
2022-09-26T19:17:48.233Z,2.92
2022-09-26T19:20:16.375Z,1.98
2022-09-26T19:22:44.410Z,6.25
2022-09-26T19:25:12.549Z,2.22
2022-09-26T19:27:49.481Z,2.13
2022-09-26T19:30:21.050Z,1.95
2022-09-26T19:32:52.755Z,2.28
2022-09-26T19:35:25.713Z,2.47
2022-09-26T19:37:54.232Z,2.35
2022-09-26T19:40:23.745Z,2.53
2022-09-26T19:42:54.905Z,2.47
2022-09-26T19:45:23.143Z,1.70
2022-09-26T19:47:54.314Z,3.08
2022-09-26T19:50:25.930Z,2.70
2022-09-26T19:52:57.419Z,2.20
2022-09-26T19:55:28.648Z,6.75
2022-09-26T19:58:07.734Z,3.25
2022-09-26T20:00:41.206Z,2.70
2022-09-26T20:03:18.366Z,7.00
2022-09-26T20:05:47.626Z,2.50
2022-09-26T20:08:19.343Z,6.40
2022-09-26T20:10:48.175Z,2.65
2022-09-26T20:13:18.344Z,5.35
2022-09-26T20:15:47.702Z,3.15
2022-09-26T20:18:21.291Z,3.15
2022-09-26T20:20:54.631Z,3.45
2022-09-26T20:23:26.211Z,3.90
2022-09-26T20:25:58.942Z,11.48
2022-09-26T20:28:28.539Z,4.05
2022-09-26T20:30:58.554Z,4.05
2022-09-26T20:33:28.457Z,5.03
2022-09-26T20:36:03.242Z,3.50
2022-09-26T20:38:38.946Z,5.35
2022-09-26T20:41:13.823Z,4.88
2022-09-26T20:43:48.840Z,5.82
2022-09-26T20:46:18.010Z,5.68
2022-09-26T20:48:48.619Z,4.78
2022-09-26T20:51:21.679Z,6.82
2022-09-26T20:53:49.847Z,6.50
2022-09-26T20:56:18.484Z,4.10
2022-09-26T20:58:48.419Z,6.15
2022-09-26T21:01:20.129Z,5.43
2022-09-26T21:03:51.589Z,7.38
2022-09-26T21:06:24.385Z,5.20
2022-09-26T21:08:52.844Z,7.32
2022-09-26T21:11:22.865Z,7.85
2022-09-26T21:13:52.336Z,6.88
2022-09-26T21:16:22.754Z,4.88
2022-09-26T21:18:53.595Z,6.78
2022-09-26T21:21:25.125Z,5.25
2022-09-26T21:23:54.574Z,7.65
2022-09-26T21:26:25.697Z,7.25
2022-09-26T21:28:56.979Z,5.97
2022-09-26T21:31:29.512Z,8.48
2022-09-26T21:33:59.419Z,7.43
2022-09-26T21:36:35.076Z,8.82
2022-09-26T21:39:03.819Z,7.45
2022-09-26T21:41:31.975Z,8.07
2022-09-26T21:44:06.794Z,9.88
2022-09-26T21:46:34.906Z,7.97
2022-09-26T21:49:02.976Z,7.70
2022-09-26T21:51:32.027Z,9.85
2022-09-26T21:54:06.106Z,7.25
2022-09-26T21:56:46.582Z,7.57
2022-09-26T21:59:16.199Z,9.50
2022-09-26T22:01:44.352Z,11.52
2022-09-26T22:04:13.124Z,11.18
2022-09-26T22:06:42.447Z,9.52
2022-09-26T22:09:10.557Z,11.07
2022-09-26T22:11:39.760Z,9.70
2022-09-26T22:14:08.158Z,8.07
2022-09-26T22:16:37.616Z,10.80
2022-09-26T22:19:05.859Z,8.70
2022-09-26T22:21:34.233Z,7.90
2022-09-26T22:24:02.868Z,11.50
2022-09-26T22:26:30.940Z,8.38
2022-09-26T22:28:58.995Z,7.22
2022-09-26T22:31:27.125Z,7.13
2022-09-26T22:33:59.500Z,6.40
2022-09-26T22:36:28.478Z,7.30
2022-09-26T22:38:56.562Z,7.53
2022-09-26T22:41:24.622Z,6.55
2022-09-26T22:43:54.087Z,6.45
2022-09-26T22:46:22.177Z,8.25
2022-09-26T22:48:50.464Z,6.15
2022-09-26T22:51:19.902Z,8.68
2022-09-26T22:53:47.859Z,7.43
2022-09-26T22:56:16.698Z,6.55
2022-09-26T22:58:47.954Z,4.45
2022-09-26T23:01:19.295Z,5.43
2022-09-26T23:03:47.392Z,5.20
2022-09-26T23:06:15.575Z,6.53
2022-09-26T23:08:45.007Z,4.20
2022-09-26T23:11:16.185Z,4.80
2022-09-26T23:13:44.300Z,4.80
2022-09-26T23:16:14.832Z,2.55
2022-09-26T23:18:43.518Z,4.65
2022-09-26T23:21:14.012Z,4.47
2022-09-26T23:23:46.311Z,3.92
2022-09-26T23:26:20.484Z,4.93
2022-09-26T23:28:48.717Z,3.00
2022-09-26T23:31:17.242Z,3.72
2022-09-26T23:33:45.631Z,4.63
2022-09-26T23:36:14.349Z,8.98
2022-09-26T23:38:45.092Z,5.57
2022-09-26T23:41:14.153Z,3.03
2022-09-26T23:43:42.628Z,4.93
2022-09-26T23:46:11.761Z,3.00
2022-09-26T23:48:40.321Z,5.68
2022-09-26T23:51:08.898Z,3.78
2022-09-26T23:53:37.066Z,5.88
2022-09-26T23:56:09.116Z,2.70
2022-09-26T23:58:38.887Z,6.30
